sensor_id;sensor_type;location;lat;lon;timestamp;P1;durP1;ratioP1;P2;durP2;ratioP2
28166;SDS011;15455;53.376;-6.262;2024-02-21T00:01:31;22.10;;;19.85;;
28166;SDS011;15455;53.376;-6.262;2024-02-21T00:04:17;21.52;;;18.25;;
28166;SDS011;15455;53.376;-6.262;2024-02-21T00:07:03;18.05;;;16.55;;
28166;SDS011;15455;53.376;-6.262;2024-02-21T00:09:49;35.42;;;21.08;;
28166;SDS011;15455;53.376;-6.262;2024-02-21T00:12:35;26.92;;;19.70;;
28166;SDS011;15455;53.376;-6.262;2024-02-21T00:15:20;24.83;;;17.33;;
28166;SDS011;15455;53.376;-6.262;2024-02-21T00:18:06;24.23;;;14.80;;
28166;SDS011;15455;53.376;-6.262;2024-02-21T00:20:52;18.52;;;15.50;;
28166;SDS011;15455;53.376;-6.262;2024-02-21T00:23:38;28.05;;;16.17;;
28166;SDS011;15455;53.376;-6.262;2024-02-21T00:26:23;28.17;;;15.68;;
28166;SDS011;15455;53.376;-6.262;2024-02-21T00:29:09;17.73;;;13.60;;
28166;SDS011;15455;53.376;-6.262;2024-02-21T00:31:55;17.02;;;11.63;;
28166;SDS011;15455;53.376;-6.262;2024-02-21T00:34:41;14.38;;;13.13;;
28166;SDS011;15455;53.376;-6.262;2024-02-21T00:37:27;14.50;;;13.50;;
28166;SDS011;15455;53.376;-6.262;2024-02-21T00:40:13;15.95;;;14.15;;
28166;SDS011;15455;53.376;-6.262;2024-02-21T00:43:01;15.68;;;14.05;;
28166;SDS011;15455;53.376;-6.262;2024-02-21T00:45:48;16.15;;;10.48;;
28166;SDS011;15455;53.376;-6.262;2024-02-21T00:48:34;22.48;;;10.88;;
28166;SDS011;15455;53.376;-6.262;2024-02-21T00:51:19;16.00;;;13.68;;
28166;SDS011;15455;53.376;-6.262;2024-02-21T00:54:05;15.32;;;10.43;;
28166;SDS011;15455;53.376;-6.262;2024-02-21T00:56:51;15.52;;;12.52;;
28166;SDS011;15455;53.376;-6.262;2024-02-21T00:59:37;15.57;;;14.00;;
28166;SDS011;15455;53.376;-6.262;2024-02-21T01:02:23;15.85;;;14.80;;
28166;SDS011;15455;53.376;-6.262;2024-02-21T01:05:08;13.52;;;12.45;;
28166;SDS011;15455;53.376;-6.262;2024-02-21T01:07:54;13.18;;;12.27;;
28166;SDS011;15455;53.376;-6.262;2024-02-21T01:10:40;16.00;;;14.98;;
28166;SDS011;15455;53.376;-6.262;2024-02-21T01:13:26;16.15;;;14.73;;
28166;SDS011;15455;53.376;-6.262;2024-02-21T01:16:11;11.55;;;10.25;;
28166;SDS011;15455;53.376;-6.262;2024-02-21T01:18:57;9.30;;;8.70;;
28166;SDS011;15455;53.376;-6.262;2024-02-21T01:21:43;7.18;;;6.68;;
28166;SDS011;15455;53.376;-6.262;2024-02-21T01:24:29;5.88;;;5.15;;
28166;SDS011;15455;53.376;-6.262;2024-02-21T01:27:15;8.48;;;5.18;;
28166;SDS011;15455;53.376;-6.262;2024-02-21T01:30:01;4.50;;;3.58;;
28166;SDS011;15455;53.376;-6.262;2024-02-21T01:32:46;5.15;;;4.38;;
28166;SDS011;15455;53.376;-6.262;2024-02-21T01:35:32;7.88;;;3.45;;
28166;SDS011;15455;53.376;-6.262;2024-02-21T01:38:18;5.78;;;3.25;;
28166;SDS011;15455;53.376;-6.262;2024-02-21T01:41:04;5.97;;;3.40;;
28166;SDS011;15455;53.376;-6.262;2024-02-21T01:43:50;6.10;;;4.15;;
28166;SDS011;15455;53.376;-6.262;2024-02-21T01:46:35;7.88;;;4.45;;
28166;SDS011;15455;53.376;-6.262;2024-02-21T01:49:22;5.93;;;5.32;;
28166;SDS011;15455;53.376;-6.262;2024-02-21T01:52:08;5.70;;;5.28;;
28166;SDS011;15455;53.376;-6.262;2024-02-21T01:54:55;6.18;;;5.65;;
28166;SDS011;15455;53.376;-6.262;2024-02-21T01:57:42;9.45;;;6.85;;
28166;SDS011;15455;53.376;-6.262;2024-02-21T02:00:32;8.75;;;5.80;;
28166;SDS011;15455;53.376;-6.262;2024-02-21T02:03:18;9.10;;;7.15;;
28166;SDS011;15455;53.376;-6.262;2024-02-21T02:06:05;7.93;;;7.20;;
28166;SDS011;15455;53.376;-6.262;2024-02-21T02:08:52;8.85;;;8.00;;
28166;SDS011;15455;53.376;-6.262;2024-02-21T02:11:38;10.18;;;9.27;;
28166;SDS011;15455;53.376;-6.262;2024-02-21T02:14:24;12.55;;;8.85;;
28166;SDS011;15455;53.376;-6.262;2024-02-21T02:17:10;8.40;;;7.85;;
28166;SDS011;15455;53.376;-6.262;2024-02-21T02:19:57;17.30;;;10.43;;
28166;SDS011;15455;53.376;-6.262;2024-02-21T02:22:43;14.07;;;11.40;;
28166;SDS011;15455;53.376;-6.262;2024-02-21T02:25:30;21.40;;;12.70;;
28166;SDS011;15455;53.376;-6.262;2024-02-21T02:28:15;15.43;;;11.70;;
28166;SDS011;15455;53.376;-6.262;2024-02-21T02:31:01;15.10;;;11.70;;
28166;SDS011;15455;53.376;-6.262;2024-02-21T02:33:47;18.95;;;13.32;;
28166;SDS011;15455;53.376;-6.262;2024-02-21T02:36:34;14.80;;;12.98;;
28166;SDS011;15455;53.376;-6.262;2024-02-21T02:39:20;13.13;;;12.05;;
28166;SDS011;15455;53.376;-6.262;2024-02-21T02:42:05;17.73;;;14.55;;
28166;SDS011;15455;53.376;-6.262;2024-02-21T02:44:51;16.27;;;14.70;;
28166;SDS011;15455;53.376;-6.262;2024-02-21T02:47:36;17.13;;;15.50;;
28166;SDS011;15455;53.376;-6.262;2024-02-21T02:50:22;16.88;;;15.52;;
28166;SDS011;15455;53.376;-6.262;2024-02-21T02:53:09;21.23;;;17.33;;
28166;SDS011;15455;53.376;-6.262;2024-02-21T02:55:54;18.05;;;16.65;;
28166;SDS011;15455;53.376;-6.262;2024-02-21T02:58:40;17.85;;;16.38;;
28166;SDS011;15455;53.376;-6.262;2024-02-21T03:01:25;17.25;;;15.82;;
28166;SDS011;15455;53.376;-6.262;2024-02-21T03:04:11;16.80;;;15.23;;
28166;SDS011;15455;53.376;-6.262;2024-02-21T03:06:57;15.80;;;14.07;;
28166;SDS011;15455;53.376;-6.262;2024-02-21T03:09:42;18.77;;;17.17;;
28166;SDS011;15455;53.376;-6.262;2024-02-21T03:12:28;16.55;;;15.48;;
28166;SDS011;15455;53.376;-6.262;2024-02-21T03:15:14;19.65;;;15.80;;
28166;SDS011;15455;53.376;-6.262;2024-02-21T03:18:00;14.48;;;13.68;;
28166;SDS011;15455;53.376;-6.262;2024-02-21T03:20:45;14.15;;;13.35;;
28166;SDS011;15455;53.376;-6.262;2024-02-21T03:23:31;15.00;;;13.95;;
28166;SDS011;15455;53.376;-6.262;2024-02-21T03:26:16;14.57;;;13.52;;
28166;SDS011;15455;53.376;-6.262;2024-02-21T03:29:03;13.75;;;13.15;;
28166;SDS011;15455;53.376;-6.262;2024-02-21T03:31:49;13.32;;;12.73;;
28166;SDS011;15455;53.376;-6.262;2024-02-21T03:34:35;15.43;;;14.60;;
28166;SDS011;15455;53.376;-6.262;2024-02-21T03:37:20;14.25;;;13.65;;
28166;SDS011;15455;53.376;-6.262;2024-02-21T03:40:07;13.88;;;13.38;;
28166;SDS011;15455;53.376;-6.262;2024-02-21T03:42:54;14.57;;;14.07;;
28166;SDS011;15455;53.376;-6.262;2024-02-21T03:45:39;14.93;;;14.32;;
28166;SDS011;15455;53.376;-6.262;2024-02-21T03:48:25;14.68;;;14.07;;
28166;SDS011;15455;53.376;-6.262;2024-02-21T03:51:10;14.45;;;13.70;;
28166;SDS011;15455;53.376;-6.262;2024-02-21T03:53:56;15.57;;;14.98;;
28166;SDS011;15455;53.376;-6.262;2024-02-21T03:56:41;13.35;;;12.85;;
28166;SDS011;15455;53.376;-6.262;2024-02-21T03:59:27;13.90;;;13.20;;
28166;SDS011;15455;53.376;-6.262;2024-02-21T04:02:13;12.07;;;11.68;;
28166;SDS011;15455;53.376;-6.262;2024-02-21T04:04:59;12.75;;;12.25;;
28166;SDS011;15455;53.376;-6.262;2024-02-21T04:07:45;12.50;;;12.07;;
28166;SDS011;15455;53.376;-6.262;2024-02-21T04:10:30;13.20;;;12.70;;
28166;SDS011;15455;53.376;-6.262;2024-02-21T04:13:16;14.07;;;13.57;;
28166;SDS011;15455;53.376;-6.262;2024-02-21T04:16:01;15.10;;;14.50;;
28166;SDS011;15455;53.376;-6.262;2024-02-21T04:18:48;14.82;;;14.23;;
28166;SDS011;15455;53.376;-6.262;2024-02-21T04:21:34;13.38;;;12.88;;
28166;SDS011;15455;53.376;-6.262;2024-02-21T04:24:19;15.57;;;14.93;;
28166;SDS011;15455;53.376;-6.262;2024-02-21T04:27:05;14.68;;;14.15;;
28166;SDS011;15455;53.376;-6.262;2024-02-21T04:29:51;13.65;;;13.15;;
28166;SDS011;15455;53.376;-6.262;2024-02-21T04:32:38;14.23;;;13.73;;
28166;SDS011;15455;53.376;-6.262;2024-02-21T04:35:24;14.27;;;13.77;;
28166;SDS011;15455;53.376;-6.262;2024-02-21T04:38:09;14.48;;;13.98;;
28166;SDS011;15455;53.376;-6.262;2024-02-21T04:40:55;14.10;;;13.60;;
28166;SDS011;15455;53.376;-6.262;2024-02-21T04:43:45;13.65;;;13.15;;
28166;SDS011;15455;53.376;-6.262;2024-02-21T04:46:32;15.52;;;14.93;;
28166;SDS011;15455;53.376;-6.262;2024-02-21T04:49:18;14.73;;;14.23;;
28166;SDS011;15455;53.376;-6.262;2024-02-21T04:52:04;14.40;;;13.90;;
28166;SDS011;15455;53.376;-6.262;2024-02-21T04:54:50;14.55;;;14.05;;
28166;SDS011;15455;53.376;-6.262;2024-02-21T04:57:37;13.95;;;13.45;;
28166;SDS011;15455;53.376;-6.262;2024-02-21T05:00:22;14.27;;;13.77;;
28166;SDS011;15455;53.376;-6.262;2024-02-21T05:03:08;12.55;;;11.80;;
28166;SDS011;15455;53.376;-6.262;2024-02-21T05:05:53;12.32;;;11.93;;
28166;SDS011;15455;53.376;-6.262;2024-02-21T05:08:39;12.73;;;12.32;;
28166;SDS011;15455;53.376;-6.262;2024-02-21T05:11:25;13.30;;;12.80;;
28166;SDS011;15455;53.376;-6.262;2024-02-21T05:14:11;13.30;;;12.80;;
28166;SDS011;15455;53.376;-6.262;2024-02-21T05:16:57;12.90;;;12.30;;
28166;SDS011;15455;53.376;-6.262;2024-02-21T05:19:42;10.90;;;10.50;;
28166;SDS011;15455;53.376;-6.262;2024-02-21T05:22:27;12.13;;;11.73;;
28166;SDS011;15455;53.376;-6.262;2024-02-21T05:25:13;12.52;;;12.13;;
28166;SDS011;15455;53.376;-6.262;2024-02-21T05:27:59;11.23;;;10.82;;
28166;SDS011;15455;53.376;-6.262;2024-02-21T05:30:47;10.98;;;10.57;;
28166;SDS011;15455;53.376;-6.262;2024-02-21T05:33:33;11.07;;;10.68;;
28166;SDS011;15455;53.376;-6.262;2024-02-21T05:36:19;11.20;;;10.80;;
28166;SDS011;15455;53.376;-6.262;2024-02-21T05:39:04;10.90;;;10.48;;
28166;SDS011;15455;53.376;-6.262;2024-02-21T05:41:50;11.15;;;10.55;;
28166;SDS011;15455;53.376;-6.262;2024-02-21T05:44:36;11.90;;;11.50;;
28166;SDS011;15455;53.376;-6.262;2024-02-21T05:47:21;10.60;;;10.20;;
28166;SDS011;15455;53.376;-6.262;2024-02-21T05:50:07;9.70;;;9.40;;
28166;SDS011;15455;53.376;-6.262;2024-02-21T05:52:54;10.50;;;10.10;;
28166;SDS011;15455;53.376;-6.262;2024-02-21T05:55:40;9.38;;;9.07;;
28166;SDS011;15455;53.376;-6.262;2024-02-21T05:58:26;8.75;;;8.45;;
28166;SDS011;15455;53.376;-6.262;2024-02-21T06:01:11;10.18;;;9.88;;
28166;SDS011;15455;53.376;-6.262;2024-02-21T06:03:57;10.00;;;9.70;;
28166;SDS011;15455;53.376;-6.262;2024-02-21T06:06:42;9.68;;;9.38;;
28166;SDS011;15455;53.376;-6.262;2024-02-21T06:09:28;11.38;;;10.98;;
28166;SDS011;15455;53.376;-6.262;2024-02-21T06:12:13;12.25;;;11.85;;
28166;SDS011;15455;53.376;-6.262;2024-02-21T06:14:59;11.85;;;11.35;;
28166;SDS011;15455;53.376;-6.262;2024-02-21T06:17:45;10.25;;;9.85;;
28166;SDS011;15455;53.376;-6.262;2024-02-21T06:20:30;11.50;;;11.00;;
28166;SDS011;15455;53.376;-6.262;2024-02-21T06:23:16;12.18;;;11.35;;
28166;SDS011;15455;53.376;-6.262;2024-02-21T06:26:01;10.18;;;9.57;;
28166;SDS011;15455;53.376;-6.262;2024-02-21T06:28:47;10.85;;;10.35;;
28166;SDS011;15455;53.376;-6.262;2024-02-21T06:31:33;10.05;;;9.65;;
28166;SDS011;15455;53.376;-6.262;2024-02-21T06:34:20;9.95;;;9.20;;
28166;SDS011;15455;53.376;-6.262;2024-02-21T06:37:05;9.45;;;8.95;;
28166;SDS011;15455;53.376;-6.262;2024-02-21T06:39:51;10.25;;;9.85;;
28166;SDS011;15455;53.376;-6.262;2024-02-21T06:42:36;11.05;;;10.40;;
28166;SDS011;15455;53.376;-6.262;2024-02-21T06:45:22;8.60;;;8.30;;
28166;SDS011;15455;53.376;-6.262;2024-02-21T06:48:07;9.02;;;8.73;;
28166;SDS011;15455;53.376;-6.262;2024-02-21T06:50:53;8.23;;;7.82;;
28166;SDS011;15455;53.376;-6.262;2024-02-21T06:53:39;8.07;;;7.75;;
28166;SDS011;15455;53.376;-6.262;2024-02-21T06:56:25;8.65;;;8.35;;
28166;SDS011;15455;53.376;-6.262;2024-02-21T06:59:14;9.35;;;8.85;;
28166;SDS011;15455;53.376;-6.262;2024-02-21T07:02:01;7.72;;;7.43;;
28166;SDS011;15455;53.376;-6.262;2024-02-21T07:04:47;8.32;;;8.02;;
28166;SDS011;15455;53.376;-6.262;2024-02-21T07:07:33;7.70;;;7.47;;
28166;SDS011;15455;53.376;-6.262;2024-02-21T07:10:20;7.25;;;6.95;;
28166;SDS011;15455;53.376;-6.262;2024-02-21T07:13:05;7.45;;;7.20;;
28166;SDS011;15455;53.376;-6.262;2024-02-21T07:15:51;7.07;;;6.88;;
28166;SDS011;15455;53.376;-6.262;2024-02-21T07:18:37;5.03;;;4.90;;
28166;SDS011;15455;53.376;-6.262;2024-02-21T07:21:22;3.10;;;3.00;;
28166;SDS011;15455;53.376;-6.262;2024-02-21T07:24:08;4.18;;;4.07;;
28166;SDS011;15455;53.376;-6.262;2024-02-21T07:26:53;3.00;;;2.92;;
28166;SDS011;15455;53.376;-6.262;2024-02-21T07:29:41;3.47;;;3.38;;
28166;SDS011;15455;53.376;-6.262;2024-02-21T07:32:27;3.80;;;3.70;;
28166;SDS011;15455;53.376;-6.262;2024-02-21T07:35:13;2.20;;;2.10;;
28166;SDS011;15455;53.376;-6.262;2024-02-21T07:37:59;3.13;;;2.92;;
28166;SDS011;15455;53.376;-6.262;2024-02-21T07:40:45;2.33;;;2.33;;
28166;SDS011;15455;53.376;-6.262;2024-02-21T07:43:30;1.30;;;1.20;;
28166;SDS011;15455;53.376;-6.262;2024-02-21T07:46:16;2.88;;;2.78;;
28166;SDS011;15455;53.376;-6.262;2024-02-21T07:49:01;4.60;;;3.15;;
28166;SDS011;15455;53.376;-6.262;2024-02-21T07:51:47;4.43;;;4.07;;
28166;SDS011;15455;53.376;-6.262;2024-02-21T07:54:33;4.32;;;4.22;;
28166;SDS011;15455;53.376;-6.262;2024-02-21T07:57:19;5.72;;;5.53;;
28166;SDS011;15455;53.376;-6.262;2024-02-21T08:00:05;5.88;;;5.68;;
28166;SDS011;15455;53.376;-6.262;2024-02-21T08:02:56;6.80;;;6.57;;
28166;SDS011;15455;53.376;-6.262;2024-02-21T08:05:42;6.85;;;6.63;;
28166;SDS011;15455;53.376;-6.262;2024-02-21T08:08:27;6.25;;;6.05;;
28166;SDS011;15455;53.376;-6.262;2024-02-21T08:11:13;6.70;;;6.50;;
28166;SDS011;15455;53.376;-6.262;2024-02-21T08:13:59;5.10;;;5.00;;
28166;SDS011;15455;53.376;-6.262;2024-02-21T08:16:45;7.50;;;7.10;;
28166;SDS011;15455;53.376;-6.262;2024-02-21T08:19:30;8.32;;;8.02;;
28166;SDS011;15455;53.376;-6.262;2024-02-21T08:22:16;7.57;;;7.38;;
28166;SDS011;15455;53.376;-6.262;2024-02-21T08:25:02;6.55;;;6.35;;
28166;SDS011;15455;53.376;-6.262;2024-02-21T08:27:50;8.30;;;6.43;;
28166;SDS011;15455;53.376;-6.262;2024-02-21T08:30:36;4.72;;;4.63;;
28166;SDS011;15455;53.376;-6.262;2024-02-21T08:33:22;5.30;;;5.15;;
28166;SDS011;15455;53.376;-6.262;2024-02-21T08:36:17;6.88;;;6.55;;
28166;SDS011;15455;53.376;-6.262;2024-02-21T08:39:04;5.85;;;5.65;;
28166;SDS011;15455;53.376;-6.262;2024-02-21T08:41:50;5.75;;;5.55;;
28166;SDS011;15455;53.376;-6.262;2024-02-21T08:44:41;5.53;;;5.35;;
28166;SDS011;15455;53.376;-6.262;2024-02-21T08:47:28;7.43;;;7.13;;
28166;SDS011;15455;53.376;-6.262;2024-02-21T08:50:13;7.97;;;7.68;;
28166;SDS011;15455;53.376;-6.262;2024-02-21T08:53:12;7.07;;;6.88;;
28166;SDS011;15455;53.376;-6.262;2024-02-21T08:55:58;5.82;;;5.53;;
28166;SDS011;15455;53.376;-6.262;2024-02-21T08:58:44;6.05;;;5.80;;
28166;SDS011;15455;53.376;-6.262;2024-02-21T09:01:30;6.28;;;6.07;;
28166;SDS011;15455;53.376;-6.262;2024-02-21T09:04:16;7.43;;;7.13;;
28166;SDS011;15455;53.376;-6.262;2024-02-21T09:07:02;6.97;;;6.47;;
28166;SDS011;15455;53.376;-6.262;2024-02-21T09:09:48;7.45;;;6.32;;
28166;SDS011;15455;53.376;-6.262;2024-02-21T09:12:34;8.80;;;8.15;;
28166;SDS011;15455;53.376;-6.262;2024-02-21T09:15:19;6.60;;;6.30;;
28166;SDS011;15455;53.376;-6.262;2024-02-21T09:18:05;44.20;;;19.52;;
28166;SDS011;15455;53.376;-6.262;2024-02-21T09:20:51;8.38;;;7.55;;
28166;SDS011;15455;53.376;-6.262;2024-02-21T09:23:37;7.85;;;7.22;;
28166;SDS011;15455;53.376;-6.262;2024-02-21T09:26:22;7.13;;;6.72;;
28166;SDS011;15455;53.376;-6.262;2024-02-21T09:29:08;8.20;;;7.35;;
28166;SDS011;15455;53.376;-6.262;2024-02-21T09:31:54;7.53;;;7.15;;
28166;SDS011;15455;53.376;-6.262;2024-02-21T09:34:39;10.70;;;10.20;;
28166;SDS011;15455;53.376;-6.262;2024-02-21T09:37:25;9.05;;;8.75;;
28166;SDS011;15455;53.376;-6.262;2024-02-21T09:40:11;9.57;;;9.27;;
28166;SDS011;15455;53.376;-6.262;2024-02-21T09:43:03;8.73;;;8.43;;
28166;SDS011;15455;53.376;-6.262;2024-02-21T09:45:53;7.22;;;6.93;;
28166;SDS011;15455;53.376;-6.262;2024-02-21T09:49:30;5.70;;;5.50;;
28166;SDS011;15455;53.376;-6.262;2024-02-21T09:52:04;5.93;;;5.72;;
28166;SDS011;15455;53.376;-6.262;2024-02-21T09:54:51;5.65;;;5.45;;
28166;SDS011;15455;53.376;-6.262;2024-02-21T09:57:38;6.10;;;5.78;;
28166;SDS011;15455;53.376;-6.262;2024-02-21T10:00:24;6.22;;;5.95;;
28166;SDS011;15455;53.376;-6.262;2024-02-21T10:03:09;4.70;;;4.60;;
28166;SDS011;15455;53.376;-6.262;2024-02-21T10:05:55;5.20;;;4.95;;
28166;SDS011;15455;53.376;-6.262;2024-02-21T10:08:41;4.18;;;4.00;;
28166;SDS011;15455;53.376;-6.262;2024-02-21T10:11:26;3.75;;;3.65;;
28166;SDS011;15455;53.376;-6.262;2024-02-21T10:14:12;3.70;;;3.60;;
28166;SDS011;15455;53.376;-6.262;2024-02-21T10:16:58;3.83;;;3.72;;
28166;SDS011;15455;53.376;-6.262;2024-02-21T10:19:44;4.65;;;4.35;;
28166;SDS011;15455;53.376;-6.262;2024-02-21T10:22:30;4.10;;;3.90;;
28166;SDS011;15455;53.376;-6.262;2024-02-21T10:25:21;6.63;;;6.43;;
28166;SDS011;15455;53.376;-6.262;2024-02-21T10:28:07;7.95;;;7.65;;
28166;SDS011;15455;53.376;-6.262;2024-02-21T10:30:53;7.45;;;7.13;;
28166;SDS011;15455;53.376;-6.262;2024-02-21T10:33:38;7.78;;;7.55;;
28166;SDS011;15455;53.376;-6.262;2024-02-21T10:36:24;7.88;;;7.57;;
28166;SDS011;15455;53.376;-6.262;2024-02-21T10:39:10;6.85;;;6.53;;
28166;SDS011;15455;53.376;-6.262;2024-02-21T10:41:56;5.78;;;5.43;;
28166;SDS011;15455;53.376;-6.262;2024-02-21T10:44:46;6.22;;;5.70;;
28166;SDS011;15455;53.376;-6.262;2024-02-21T10:47:38;6.85;;;5.18;;
28166;SDS011;15455;53.376;-6.262;2024-02-21T10:50:25;5.93;;;5.72;;
28166;SDS011;15455;53.376;-6.262;2024-02-21T10:53:19;4.95;;;4.78;;
28166;SDS011;15455;53.376;-6.262;2024-02-21T10:59:20;8.02;;;7.72;;
28166;SDS011;15455;53.376;-6.262;2024-02-21T11:02:07;6.20;;;6.00;;
28166;SDS011;15455;53.376;-6.262;2024-02-21T11:04:53;6.47;;;6.18;;
28166;SDS011;15455;53.376;-6.262;2024-02-21T11:07:40;6.03;;;5.80;;
28166;SDS011;15455;53.376;-6.262;2024-02-21T11:10:26;5.03;;;4.82;;
28166;SDS011;15455;53.376;-6.262;2024-02-21T11:13:12;4.82;;;4.72;;
28166;SDS011;15455;53.376;-6.262;2024-02-21T11:16:08;3.92;;;3.83;;
28166;SDS011;15455;53.376;-6.262;2024-02-21T11:19:03;2.92;;;2.83;;
28166;SDS011;15455;53.376;-6.262;2024-02-21T11:21:54;2.90;;;2.80;;
28166;SDS011;15455;53.376;-6.262;2024-02-21T11:24:40;2.90;;;2.80;;
28166;SDS011;15455;53.376;-6.262;2024-02-21T11:27:33;4.22;;;2.83;;
28166;SDS011;15455;53.376;-6.262;2024-02-21T11:30:19;2.17;;;2.08;;
28166;SDS011;15455;53.376;-6.262;2024-02-21T11:33:12;2.92;;;2.20;;
28166;SDS011;15455;53.376;-6.262;2024-02-21T11:35:58;1.83;;;1.52;;
28166;SDS011;15455;53.376;-6.262;2024-02-21T11:38:43;3.17;;;2.97;;
28166;SDS011;15455;53.376;-6.262;2024-02-21T11:41:29;3.20;;;3.10;;
28166;SDS011;15455;53.376;-6.262;2024-02-21T11:44:14;3.47;;;2.78;;
28166;SDS011;15455;53.376;-6.262;2024-02-21T11:47:00;3.30;;;3.15;;
28166;SDS011;15455;53.376;-6.262;2024-02-21T11:49:46;1.75;;;1.70;;
28166;SDS011;15455;53.376;-6.262;2024-02-21T11:52:35;4.43;;;2.30;;
28166;SDS011;15455;53.376;-6.262;2024-02-21T11:55:21;3.03;;;2.85;;
28166;SDS011;15455;53.376;-6.262;2024-02-21T11:58:07;4.03;;;1.60;;
28166;SDS011;15455;53.376;-6.262;2024-02-21T12:00:53;1.27;;;1.13;;
28166;SDS011;15455;53.376;-6.262;2024-02-21T12:03:39;2.92;;;1.48;;
28166;SDS011;15455;53.376;-6.262;2024-02-21T12:06:26;8.18;;;1.48;;
28166;SDS011;15455;53.376;-6.262;2024-02-21T12:09:18;2.90;;;1.13;;
28166;SDS011;15455;53.376;-6.262;2024-02-21T12:12:04;2.03;;;1.63;;
28166;SDS011;15455;53.376;-6.262;2024-02-21T12:14:55;2.75;;;1.85;;
28166;SDS011;15455;53.376;-6.262;2024-02-21T12:17:44;3.50;;;1.23;;
28166;SDS011;15455;53.376;-6.262;2024-02-21T12:20:30;4.03;;;1.17;;
28166;SDS011;15455;53.376;-6.262;2024-02-21T12:23:18;2.05;;;1.02;;
28166;SDS011;15455;53.376;-6.262;2024-02-21T12:26:04;1.33;;;0.85;;
28166;SDS011;15455;53.376;-6.262;2024-02-21T12:28:50;1.70;;;0.95;;
28166;SDS011;15455;53.376;-6.262;2024-02-21T12:31:37;0.82;;;0.82;;
28166;SDS011;15455;53.376;-6.262;2024-02-21T12:34:23;3.00;;;1.17;;
28166;SDS011;15455;53.376;-6.262;2024-02-21T12:37:27;4.00;;;1.40;;
28166;SDS011;15455;53.376;-6.262;2024-02-21T12:40:13;3.72;;;1.60;;
28166;SDS011;15455;53.376;-6.262;2024-02-21T12:43:00;6.47;;;1.40;;
28166;SDS011;15455;53.376;-6.262;2024-02-21T12:45:48;4.82;;;1.38;;
28166;SDS011;15455;53.376;-6.262;2024-02-21T12:48:35;6.63;;;2.33;;
28166;SDS011;15455;53.376;-6.262;2024-02-21T12:51:20;2.97;;;0.85;;
28166;SDS011;15455;53.376;-6.262;2024-02-21T12:54:06;5.00;;;1.00;;
28166;SDS011;15455;53.376;-6.262;2024-02-21T12:56:51;5.97;;;1.33;;
28166;SDS011;15455;53.376;-6.262;2024-02-21T12:59:37;6.72;;;0.88;;
28166;SDS011;15455;53.376;-6.262;2024-02-21T13:02:22;5.15;;;1.10;;
28166;SDS011;15455;53.376;-6.262;2024-02-21T13:05:08;4.82;;;1.17;;
28166;SDS011;15455;53.376;-6.262;2024-02-21T13:07:54;3.47;;;1.20;;
28166;SDS011;15455;53.376;-6.262;2024-02-21T13:10:40;5.47;;;1.38;;
28166;SDS011;15455;53.376;-6.262;2024-02-21T13:13:25;3.58;;;0.95;;
28166;SDS011;15455;53.376;-6.262;2024-02-21T13:16:11;3.05;;;1.33;;
28166;SDS011;15455;53.376;-6.262;2024-02-21T13:18:57;3.65;;;0.90;;
28166;SDS011;15455;53.376;-6.262;2024-02-21T13:21:42;2.15;;;0.45;;
28166;SDS011;15455;53.376;-6.262;2024-02-21T13:24:29;2.80;;;0.63;;
28166;SDS011;15455;53.376;-6.262;2024-02-21T13:27:15;4.88;;;1.00;;
28166;SDS011;15455;53.376;-6.262;2024-02-21T13:30:01;4.30;;;0.68;;
28166;SDS011;15455;53.376;-6.262;2024-02-21T13:32:50;2.10;;;0.93;;
28166;SDS011;15455;53.376;-6.262;2024-02-21T13:35:36;5.65;;;0.90;;
28166;SDS011;15455;53.376;-6.262;2024-02-21T13:38:22;4.28;;;0.70;;
28166;SDS011;15455;53.376;-6.262;2024-02-21T13:41:09;5.78;;;1.25;;
28166;SDS011;15455;53.376;-6.262;2024-02-21T13:43:55;5.15;;;1.13;;
28166;SDS011;15455;53.376;-6.262;2024-02-21T13:46:40;4.25;;;1.52;;
28166;SDS011;15455;53.376;-6.262;2024-02-21T13:49:26;6.05;;;1.27;;
28166;SDS011;15455;53.376;-6.262;2024-02-21T13:52:11;9.23;;;1.02;;
28166;SDS011;15455;53.376;-6.262;2024-02-21T13:54:57;2.33;;;0.95;;
28166;SDS011;15455;53.376;-6.262;2024-02-21T13:57:42;2.60;;;1.23;;
28166;SDS011;15455;53.376;-6.262;2024-02-21T14:00:28;3.05;;;1.02;;
28166;SDS011;15455;53.376;-6.262;2024-02-21T14:03:13;5.15;;;1.52;;
28166;SDS011;15455;53.376;-6.262;2024-02-21T14:05:59;14.70;;;1.65;;
28166;SDS011;15455;53.376;-6.262;2024-02-21T14:08:44;6.35;;;1.00;;
28166;SDS011;15455;53.376;-6.262;2024-02-21T14:11:30;1.33;;;1.10;;
28166;SDS011;15455;53.376;-6.262;2024-02-21T14:14:16;4.15;;;0.93;;
28166;SDS011;15455;53.376;-6.262;2024-02-21T14:17:02;2.05;;;0.80;;
28166;SDS011;15455;53.376;-6.262;2024-02-21T14:19:49;3.25;;;0.88;;
28166;SDS011;15455;53.376;-6.262;2024-02-21T14:22:35;5.05;;;0.88;;
28166;SDS011;15455;53.376;-6.262;2024-02-21T14:25:22;5.45;;;0.93;;
28166;SDS011;15455;53.376;-6.262;2024-02-21T14:28:08;3.83;;;1.40;;
28166;SDS011;15455;53.376;-6.262;2024-02-21T14:30:56;6.15;;;1.00;;
28166;SDS011;15455;53.376;-6.262;2024-02-21T14:33:42;3.30;;;0.85;;
28166;SDS011;15455;53.376;-6.262;2024-02-21T14:36:28;6.35;;;2.72;;
28166;SDS011;15455;53.376;-6.262;2024-02-21T14:39:14;7.25;;;1.40;;
28166;SDS011;15455;53.376;-6.262;2024-02-21T14:41:59;1.15;;;0.68;;
28166;SDS011;15455;53.376;-6.262;2024-02-21T14:44:45;7.53;;;0.90;;
28166;SDS011;15455;53.376;-6.262;2024-02-21T14:47:31;5.15;;;1.23;;
28166;SDS011;15455;53.376;-6.262;2024-02-21T14:50:17;5.78;;;1.90;;
28166;SDS011;15455;53.376;-6.262;2024-02-21T14:53:03;3.08;;;0.82;;
28166;SDS011;15455;53.376;-6.262;2024-02-21T14:55:49;6.15;;;1.00;;
28166;SDS011;15455;53.376;-6.262;2024-02-21T14:58:35;5.80;;;1.08;;
28166;SDS011;15455;53.376;-6.262;2024-02-21T15:01:21;3.97;;;0.80;;
28166;SDS011;15455;53.376;-6.262;2024-02-21T15:04:06;5.70;;;0.85;;
28166;SDS011;15455;53.376;-6.262;2024-02-21T15:06:53;4.97;;;0.65;;
28166;SDS011;15455;53.376;-6.262;2024-02-21T15:09:38;5.03;;;0.90;;
28166;SDS011;15455;53.376;-6.262;2024-02-21T15:12:23;5.88;;;1.13;;
28166;SDS011;15455;53.376;-6.262;2024-02-21T15:15:09;3.00;;;1.60;;
28166;SDS011;15455;53.376;-6.262;2024-02-21T15:17:55;10.07;;;1.17;;
28166;SDS011;15455;53.376;-6.262;2024-02-21T15:20:40;4.50;;;0.60;;
28166;SDS011;15455;53.376;-6.262;2024-02-21T15:23:26;4.05;;;0.90;;
28166;SDS011;15455;53.376;-6.262;2024-02-21T15:26:12;5.10;;;1.13;;
28166;SDS011;15455;53.376;-6.262;2024-02-21T15:28:58;3.67;;;0.55;;
28166;SDS011;15455;53.376;-6.262;2024-02-21T15:31:44;11.80;;;1.35;;
28166;SDS011;15455;53.376;-6.262;2024-02-21T15:34:32;6.32;;;1.17;;
28166;SDS011;15455;53.376;-6.262;2024-02-21T15:37:18;8.68;;;1.00;;
28166;SDS011;15455;53.376;-6.262;2024-02-21T15:40:05;9.90;;;1.02;;
28166;SDS011;15455;53.376;-6.262;2024-02-21T15:42:53;10.20;;;0.95;;
28166;SDS011;15455;53.376;-6.262;2024-02-21T15:45:39;11.75;;;1.38;;
28166;SDS011;15455;53.376;-6.262;2024-02-21T15:48:24;10.18;;;1.50;;
28166;SDS011;15455;53.376;-6.262;2024-02-21T15:51:10;11.18;;;1.50;;
28166;SDS011;15455;53.376;-6.262;2024-02-21T15:53:56;4.72;;;1.02;;
28166;SDS011;15455;53.376;-6.262;2024-02-21T15:56:42;5.95;;;0.90;;
28166;SDS011;15455;53.376;-6.262;2024-02-21T15:59:28;8.82;;;1.20;;
28166;SDS011;15455;53.376;-6.262;2024-02-21T16:02:13;4.82;;;1.13;;
28166;SDS011;15455;53.376;-6.262;2024-02-21T16:04:59;4.57;;;0.70;;
28166;SDS011;15455;53.376;-6.262;2024-02-21T16:07:45;6.80;;;1.15;;
28166;SDS011;15455;53.376;-6.262;2024-02-21T16:10:30;4.43;;;0.60;;
28166;SDS011;15455;53.376;-6.262;2024-02-21T16:13:16;3.47;;;1.15;;
28166;SDS011;15455;53.376;-6.262;2024-02-21T16:16:02;4.45;;;0.68;;
28166;SDS011;15455;53.376;-6.262;2024-02-21T16:18:48;4.13;;;1.65;;
28166;SDS011;15455;53.376;-6.262;2024-02-21T16:21:34;3.72;;;0.80;;